createdAt,value
2023-08-11T00:02:09.132Z,99.90
2023-08-11T00:04:35.942Z,99.90
2023-08-11T00:07:03.675Z,99.90
2023-08-11T00:09:30.595Z,99.90
2023-08-11T00:11:57.344Z,99.90
2023-08-11T00:14:24.186Z,99.90
2023-08-11T00:16:50.879Z,99.90
2023-08-11T00:19:17.653Z,99.90
2023-08-11T00:21:44.678Z,99.90
2023-08-11T00:24:12.629Z,99.90
2023-08-11T00:26:39.376Z,99.90
2023-08-11T00:29:06.320Z,99.90
2023-08-11T00:31:33.188Z,99.90
2023-08-11T00:33:59.998Z,99.90
2023-08-11T00:36:26.721Z,99.90
2023-08-11T00:38:53.459Z,99.90
2023-08-11T00:41:20.160Z,99.90
2023-08-11T00:43:47.681Z,99.90
2023-08-11T00:46:16.314Z,99.90
2023-08-11T00:48:43.538Z,99.90
2023-08-11T00:51:14.494Z,99.90
2023-08-11T00:53:41.689Z,99.90
2023-08-11T00:56:08.838Z,99.90
2023-08-11T00:58:36.387Z,99.90
2023-08-11T01:01:04.445Z,99.90
2023-08-11T01:03:31.837Z,99.90
2023-08-11T01:06:36.603Z,99.90
2023-08-11T01:09:17.831Z,99.90
2023-08-11T01:12:17.372Z,99.90
2023-08-11T01:14:59.174Z,99.90
2023-08-11T01:17:27.016Z,99.90
2023-08-11T01:19:54.452Z,99.90
2023-08-11T01:22:29.690Z,99.90
2023-08-11T01:24:57.096Z,99.90
2023-08-11T01:27:24.542Z,99.90
2023-08-11T01:29:51.922Z,99.90
2023-08-11T01:32:19.777Z,99.90
2023-08-11T01:34:47.848Z,99.90
2023-08-11T01:37:14.657Z,99.90
2023-08-11T01:39:41.392Z,99.90
2023-08-11T01:42:11.235Z,99.90
2023-08-11T01:44:38.057Z,99.90
2023-08-11T01:47:06.903Z,99.90
2023-08-11T01:49:34.031Z,99.90
2023-08-11T01:52:01.313Z,99.90
2023-08-11T01:54:28.696Z,99.90
2023-08-11T01:56:56.481Z,99.90
2023-08-11T01:59:23.829Z,99.90
2023-08-11T02:01:50.621Z,99.90
2023-08-11T02:04:17.408Z,99.90
2023-08-11T02:06:44.166Z,99.90
2023-08-11T02:09:12.901Z,99.90
2023-08-11T02:11:40.485Z,99.90
2023-08-11T02:14:07.230Z,99.90
2023-08-11T02:16:34.710Z,99.90
2023-08-11T02:19:01.987Z,99.90
2023-08-11T02:21:29.620Z,99.90
2023-08-11T02:23:56.321Z,99.90
2023-08-11T02:26:23.875Z,99.90
2023-08-11T02:28:50.881Z,99.90
2023-08-11T02:31:19.333Z,99.90
2023-08-11T02:33:47.073Z,99.90
2023-08-11T02:36:15.269Z,99.90
2023-08-11T02:38:42.123Z,99.90
2023-08-11T02:41:09.068Z,99.90
2023-08-11T02:43:38.053Z,99.90
2023-08-11T02:46:07.122Z,99.90
2023-08-11T02:48:39.446Z,99.90
2023-08-11T02:51:06.414Z,99.90
2023-08-11T02:53:33.311Z,99.90
2023-08-11T02:56:02.823Z,99.90
2023-08-11T02:58:29.627Z,99.90
2023-08-11T03:00:59.086Z,99.90
2023-08-11T03:03:26.878Z,99.90
2023-08-11T03:05:53.888Z,99.90
2023-08-11T03:08:20.655Z,99.90
2023-08-11T03:10:56.671Z,99.90
2023-08-11T03:13:24.851Z,99.90
2023-08-11T03:15:53.221Z,99.90
2023-08-11T03:18:21.186Z,99.90
2023-08-11T03:20:48.613Z,99.90
2023-08-11T03:23:15.366Z,99.90
2023-08-11T03:25:42.075Z,99.90
2023-08-11T03:28:08.940Z,99.90
2023-08-11T03:30:35.908Z,99.90
2023-08-11T03:33:02.768Z,99.90
2023-08-11T03:35:29.502Z,99.90
2023-08-11T03:37:56.278Z,99.90
2023-08-11T03:40:23.091Z,99.90
2023-08-11T03:42:49.880Z,99.90
2023-08-11T03:45:16.788Z,99.90
2023-08-11T03:47:44.025Z,99.90
2023-08-11T03:50:11.308Z,99.90
2023-08-11T03:52:38.963Z,99.90
2023-08-11T03:55:10.451Z,99.90
2023-08-11T03:57:38.319Z,99.90
2023-08-11T04:00:16.065Z,99.90
2023-08-11T04:02:44.916Z,99.90
2023-08-11T04:05:11.845Z,99.90
2023-08-11T04:07:39.098Z,99.90
2023-08-11T04:10:06.467Z,99.90
2023-08-11T04:12:34.034Z,99.90
2023-08-11T04:15:00.883Z,99.90
2023-08-11T04:17:27.784Z,99.90
2023-08-11T04:19:55.061Z,99.90
2023-08-11T04:22:32.817Z,99.90
2023-08-11T04:25:04.136Z,99.90
2023-08-11T04:27:30.841Z,99.90
2023-08-11T04:29:57.561Z,99.90
2023-08-11T04:32:24.332Z,99.90
2023-08-11T04:34:51.029Z,99.90
2023-08-11T04:37:19.550Z,99.90
2023-08-11T04:39:46.266Z,99.90
2023-08-11T04:42:13.781Z,99.90
2023-08-11T04:44:40.518Z,99.90
2023-08-11T04:47:07.340Z,99.90
2023-08-11T04:49:34.059Z,99.90
2023-08-11T04:52:00.806Z,99.90
2023-08-11T04:54:28.566Z,99.90
2023-08-11T04:56:55.261Z,99.90
2023-08-11T04:59:22.038Z,99.90
2023-08-11T05:01:50.012Z,99.90
2023-08-11T05:04:16.772Z,99.90
2023-08-11T05:06:43.954Z,99.90
2023-08-11T05:09:10.910Z,99.90
2023-08-11T05:11:38.547Z,99.90
2023-08-11T05:14:05.381Z,99.90
2023-08-11T05:16:32.209Z,99.90
2023-08-11T05:18:58.940Z,99.90
2023-08-11T05:21:26.162Z,99.90
2023-08-11T05:23:52.891Z,99.90
2023-08-11T05:26:19.685Z,99.90
2023-08-11T05:28:46.777Z,99.90
2023-08-11T05:31:13.603Z,99.90
2023-08-11T05:33:40.349Z,99.90
2023-08-11T05:36:07.051Z,99.90
2023-08-11T05:38:33.727Z,99.90
2023-08-11T05:41:00.406Z,99.90
2023-08-11T05:43:27.187Z,99.90
2023-08-11T05:45:53.914Z,99.90
2023-08-11T05:48:20.656Z,99.90
2023-08-11T05:50:48.032Z,99.90
2023-08-11T05:53:15.349Z,99.90
2023-08-11T05:55:42.796Z,99.90
2023-08-11T05:58:09.609Z,99.90
2023-08-11T06:00:36.499Z,99.90
2023-08-11T06:03:03.653Z,99.90
2023-08-11T06:05:30.417Z,99.90
2023-08-11T06:08:06.200Z,99.90
2023-08-11T06:10:34.378Z,99.90
2023-08-11T06:13:01.211Z,99.90
2023-08-11T06:15:28.014Z,99.90
2023-08-11T06:17:54.836Z,99.90
2023-08-11T06:20:34.365Z,99.90
2023-08-11T06:23:07.751Z,99.90
2023-08-11T06:25:34.507Z,99.90
2023-08-11T06:28:01.257Z,99.90
2023-08-11T06:30:29.988Z,99.90
2023-08-11T06:32:57.377Z,99.90
2023-08-11T06:35:24.352Z,99.90
2023-08-11T06:37:51.081Z,99.90
2023-08-11T06:40:18.025Z,99.90
2023-08-11T06:42:44.736Z,99.90
2023-08-11T06:45:11.924Z,99.90
2023-08-11T06:47:38.977Z,99.90
2023-08-11T06:50:06.178Z,99.90
2023-08-11T06:52:32.965Z,99.90
2023-08-11T06:54:59.693Z,99.90
2023-08-11T06:57:26.484Z,99.90
2023-08-11T06:59:53.316Z,99.90
2023-08-11T07:02:20.113Z,99.90
2023-08-11T07:04:46.882Z,99.90
2023-08-11T07:07:13.765Z,99.90
2023-08-11T07:09:40.541Z,99.90
2023-08-11T07:12:07.593Z,99.90
2023-08-11T07:14:34.309Z,99.90
2023-08-11T07:17:01.058Z,99.90
2023-08-11T07:19:27.905Z,99.90
2023-08-11T07:21:54.666Z,99.90
2023-08-11T07:24:21.354Z,99.90
2023-08-11T07:26:48.282Z,99.90
2023-08-11T07:29:15.208Z,99.90
2023-08-11T07:31:42.426Z,99.90
2023-08-11T07:34:09.882Z,99.90
2023-08-11T07:36:37.175Z,99.90
2023-08-11T07:39:17.011Z,99.90
2023-08-11T07:41:50.338Z,99.90
2023-08-11T07:44:18.571Z,99.90
2023-08-11T07:46:45.464Z,99.90
2023-08-11T07:49:13.445Z,99.90
2023-08-11T07:51:42.173Z,99.90
2023-08-11T07:54:09.569Z,99.90
2023-08-11T07:56:36.425Z,99.90
2023-08-11T07:59:03.415Z,99.90
2023-08-11T08:01:30.534Z,99.90
2023-08-11T08:03:57.806Z,99.90
2023-08-11T08:06:25.127Z,99.90
2023-08-11T08:08:51.942Z,99.90
2023-08-11T08:11:18.813Z,99.90
2023-08-11T08:13:45.591Z,99.90
2023-08-11T08:16:12.439Z,99.90
2023-08-11T08:18:39.290Z,99.90
2023-08-11T08:21:06.155Z,99.90
2023-08-11T08:23:33.127Z,99.90
2023-08-11T08:25:59.890Z,99.90
2023-08-11T08:28:27.091Z,99.90
2023-08-11T08:30:53.978Z,99.90
2023-08-11T08:33:20.816Z,99.90
2023-08-11T08:35:47.690Z,99.90
2023-08-11T08:38:14.514Z,99.90
2023-08-11T08:40:41.739Z,99.90
2023-08-11T08:43:09.785Z,99.90
2023-08-11T08:45:38.007Z,99.90
2023-08-11T08:48:09.423Z,99.90
2023-08-11T08:50:38.045Z,99.90
2023-08-11T08:53:04.879Z,99.90
2023-08-11T08:55:31.635Z,99.90
2023-08-11T08:57:58.376Z,99.90
2023-08-11T09:00:25.106Z,99.90
2023-08-11T09:02:53.669Z,99.90
2023-08-11T09:05:21.343Z,99.90
2023-08-11T09:07:48.929Z,99.90
2023-08-11T09:10:17.656Z,99.90
2023-08-11T09:12:46.001Z,99.90
2023-08-11T09:15:13.455Z,99.90
2023-08-11T09:17:40.902Z,99.90
2023-08-11T09:20:11.076Z,99.90
2023-08-11T09:22:39.431Z,99.90
2023-08-11T09:25:07.192Z,99.90
2023-08-11T09:27:34.637Z,99.90
2023-08-11T09:30:01.523Z,99.90
2023-08-11T09:32:28.435Z,99.90
2023-08-11T09:34:55.309Z,99.90
2023-08-11T09:37:22.361Z,99.90
2023-08-11T09:39:50.502Z,99.90
2023-08-11T09:42:20.183Z,99.90
2023-08-11T09:44:46.940Z,99.90
2023-08-11T09:47:16.292Z,99.90
2023-08-11T09:49:49.709Z,99.90
2023-08-11T09:52:16.765Z,99.90
2023-08-11T09:54:45.092Z,99.90
2023-08-11T09:57:14.294Z,99.90
2023-08-11T09:59:45.600Z,99.90
2023-08-11T10:02:18.432Z,99.90
2023-08-11T10:04:57.923Z,99.90
2023-08-11T10:07:35.102Z,99.90
2023-08-11T10:10:16.738Z,99.90
2023-08-11T10:12:56.490Z,99.90
2023-08-11T10:15:24.649Z,99.90
2023-08-11T10:17:51.626Z,99.90
2023-08-11T10:20:18.791Z,99.90
2023-08-11T10:22:45.966Z,99.90
2023-08-11T10:25:13.116Z,99.90
2023-08-11T10:27:41.023Z,99.90
2023-08-11T10:30:10.503Z,99.90
2023-08-11T10:32:37.538Z,99.90
2023-08-11T10:35:07.847Z,99.90
2023-08-11T10:37:34.943Z,99.90
2023-08-11T10:40:11.646Z,99.90
2023-08-11T10:42:40.294Z,99.90
2023-08-11T10:45:16.552Z,99.90
2023-08-11T10:47:53.275Z,99.90
2023-08-11T10:50:23.744Z,99.90
2023-08-11T10:53:21.897Z,99.90
2023-08-11T10:56:02.313Z,99.90
2023-08-11T10:58:32.878Z,99.90
2023-08-11T11:01:00.673Z,99.90
2023-08-11T11:03:27.503Z,99.90
2023-08-11T11:05:54.951Z,99.90
2023-08-11T11:08:21.854Z,99.90
2023-08-11T11:10:50.584Z,99.90
2023-08-11T11:13:18.181Z,99.90
2023-08-11T11:15:45.408Z,99.90
2023-08-11T11:18:12.565Z,99.90
2023-08-11T11:20:39.462Z,99.90
2023-08-11T11:23:06.966Z,99.90
2023-08-11T11:25:33.790Z,99.90
2023-08-11T11:28:00.570Z,99.90
2023-08-11T11:30:28.039Z,99.90
2023-08-11T11:32:55.319Z,99.90
2023-08-11T11:35:24.591Z,99.90
2023-08-11T11:37:53.077Z,99.90
2023-08-11T11:40:19.936Z,99.90
2023-08-11T11:42:48.441Z,99.90
2023-08-11T11:45:15.814Z,99.90
2023-08-11T11:47:43.067Z,99.90
2023-08-11T11:50:10.214Z,99.90
2023-08-11T11:52:38.089Z,99.90
2023-08-11T11:55:07.356Z,99.90
2023-08-11T11:57:35.032Z,99.90
2023-08-11T12:00:04.655Z,99.90
2023-08-11T12:02:32.203Z,99.90
2023-08-11T12:05:00.003Z,99.90
2023-08-11T12:07:33.010Z,99.90
2023-08-11T12:10:00.698Z,99.90
2023-08-11T12:12:28.326Z,99.90
2023-08-11T12:15:06.356Z,99.90
2023-08-11T12:17:34.404Z,99.90
2023-08-11T12:20:05.722Z,99.90
2023-08-11T12:22:32.637Z,99.90
2023-08-11T12:24:59.430Z,99.90
2023-08-11T12:27:26.851Z,99.90
2023-08-11T12:29:53.596Z,99.90
2023-08-11T12:32:21.072Z,99.90
2023-08-11T12:34:48.303Z,99.90
2023-08-11T12:37:15.543Z,99.90
2023-08-11T12:39:43.381Z,99.90
2023-08-11T12:42:11.354Z,99.90
2023-08-11T12:44:40.417Z,99.90
2023-08-11T12:47:07.619Z,99.90
2023-08-11T12:49:34.755Z,99.90
2023-08-11T12:52:01.650Z,99.90
2023-08-11T12:54:28.327Z,99.90
2023-08-11T12:56:55.123Z,99.90
2023-08-11T12:59:21.914Z,99.90
2023-08-11T13:01:51.683Z,99.90
2023-08-11T13:04:19.427Z,99.90
2023-08-11T13:06:46.162Z,99.90
2023-08-11T13:09:13.029Z,99.90
2023-08-11T13:11:40.032Z,99.90
2023-08-11T13:14:07.014Z,99.90
2023-08-11T13:16:36.402Z,99.90
2023-08-11T13:19:03.913Z,99.90
2023-08-11T13:21:31.776Z,99.90
2023-08-11T13:24:00.679Z,99.90
2023-08-11T13:26:27.464Z,99.90
2023-08-11T13:28:58.289Z,99.90
2023-08-11T13:31:25.328Z,99.90
2023-08-11T13:33:52.285Z,99.90
2023-08-11T13:36:19.137Z,99.90
2023-08-11T13:38:45.930Z,99.90
2023-08-11T13:41:12.745Z,99.90
2023-08-11T13:43:39.800Z,99.90
2023-08-11T13:46:06.672Z,99.90
2023-08-11T13:48:33.405Z,99.90
2023-08-11T13:51:00.210Z,99.90
2023-08-11T13:53:27.078Z,99.90
2023-08-11T13:55:53.841Z,99.90
2023-08-11T13:58:20.595Z,99.90
2023-08-11T14:00:48.671Z,99.90
2023-08-11T14:03:15.412Z,99.90
2023-08-11T14:05:42.433Z,99.90
2023-08-11T14:08:09.214Z,99.90
2023-08-11T14:10:35.992Z,99.90
2023-08-11T14:13:06.445Z,99.90
2023-08-11T14:15:34.654Z,99.90
2023-08-11T14:18:01.777Z,99.90
2023-08-11T14:20:28.651Z,99.90
2023-08-11T14:22:55.517Z,99.90
2023-08-11T14:25:22.280Z,99.90
2023-08-11T14:27:49.080Z,99.90
2023-08-11T14:30:15.909Z,99.90
2023-08-11T14:32:42.815Z,99.90
2023-08-11T14:35:10.125Z,99.90
2023-08-11T14:37:37.108Z,99.90
2023-08-11T14:40:04.146Z,99.90
2023-08-11T14:42:30.867Z,99.90
2023-08-11T14:44:58.139Z,99.90
2023-08-11T14:47:24.885Z,99.90
2023-08-11T14:49:51.681Z,99.90
2023-08-11T14:52:18.417Z,99.90
2023-08-11T14:54:45.205Z,99.90
2023-08-11T14:57:14.086Z,99.90
2023-08-11T14:59:41.210Z,99.90
2023-08-11T15:02:09.249Z,99.90
2023-08-11T15:04:36.489Z,99.90
2023-08-11T15:07:03.362Z,99.70
2023-08-11T15:09:30.150Z,99.00
2023-08-11T15:11:56.962Z,98.20
2023-08-11T15:14:23.666Z,99.70
2023-08-11T15:16:50.452Z,98.90
2023-08-11T15:19:17.269Z,98.90
2023-08-11T15:21:44.004Z,98.30
2023-08-11T15:24:10.736Z,97.50
2023-08-11T15:26:40.307Z,97.30
2023-08-11T15:29:07.146Z,97.30
2023-08-11T15:31:34.025Z,99.20
2023-08-11T15:34:00.761Z,99.70
2023-08-11T15:36:27.498Z,98.20
2023-08-11T15:38:54.361Z,97.40
2023-08-11T15:41:21.213Z,95.90
2023-08-11T15:43:48.278Z,95.00
2023-08-11T15:46:15.152Z,95.20
2023-08-11T15:48:41.878Z,94.40
2023-08-11T15:51:08.636Z,94.10
2023-08-11T15:53:35.404Z,94.80
2023-08-11T15:56:02.824Z,94.10
2023-08-11T15:58:29.629Z,93.30
2023-08-11T16:00:57.260Z,93.00
2023-08-11T16:03:24.116Z,91.80
2023-08-11T16:05:51.104Z,90.90
2023-08-11T16:08:17.922Z,90.20
2023-08-11T16:10:45.377Z,90.40
2023-08-11T16:13:12.169Z,90.50
2023-08-11T16:15:39.382Z,89.20
2023-08-11T16:18:09.787Z,88.50
2023-08-11T16:20:36.952Z,88.90
2023-08-11T16:23:05.071Z,88.20
2023-08-11T16:25:31.857Z,87.00
2023-08-11T16:27:58.759Z,86.20
2023-08-11T16:30:25.565Z,87.20
2023-08-11T16:32:54.936Z,85.70
2023-08-11T16:35:21.775Z,85.00
2023-08-11T16:37:48.801Z,84.10
2023-08-11T16:40:16.067Z,84.20
2023-08-11T16:42:43.200Z,83.60
2023-08-11T16:45:10.315Z,84.30
2023-08-11T16:47:37.189Z,83.40
2023-08-11T16:50:05.949Z,84.60
2023-08-11T16:52:32.775Z,83.30
2023-08-11T16:54:59.563Z,81.90
2023-08-11T16:57:26.337Z,82.40
2023-08-11T16:59:53.183Z,82.20
2023-08-11T17:02:20.045Z,79.90
2023-08-11T17:04:46.839Z,80.30
2023-08-11T17:07:13.557Z,81.80
2023-08-11T17:09:40.274Z,81.30
2023-08-11T17:12:07.673Z,81.40
2023-08-11T17:14:34.548Z,80.90
2023-08-11T17:17:01.380Z,80.00
2023-08-11T17:19:28.175Z,79.70
2023-08-11T17:21:54.870Z,78.40
2023-08-11T17:24:21.605Z,77.60
2023-08-11T17:26:48.326Z,76.70
2023-08-11T17:29:15.143Z,76.80
2023-08-11T17:31:42.165Z,77.90
2023-08-11T17:34:08.978Z,79.60
2023-08-11T17:36:35.744Z,80.60
2023-08-11T17:39:06.411Z,81.50
2023-08-11T17:41:34.005Z,81.20
2023-08-11T17:44:00.862Z,80.60
2023-08-11T17:46:28.358Z,82.40
2023-08-11T17:48:56.078Z,84.30
2023-08-11T17:51:24.098Z,85.90
2023-08-11T17:54:03.724Z,86.60
2023-08-11T17:56:36.743Z,87.70
2023-08-11T17:59:04.440Z,88.20
2023-08-11T18:01:31.748Z,88.10
2023-08-11T18:04:02.868Z,87.30
2023-08-11T18:06:30.605Z,87.00
2023-08-11T18:08:57.358Z,85.80
2023-08-11T18:11:24.247Z,85.50
2023-08-11T18:13:53.779Z,86.60
2023-08-11T18:16:20.515Z,86.10
2023-08-11T18:18:47.291Z,86.90
2023-08-11T18:21:20.377Z,87.80
2023-08-11T18:23:48.442Z,88.10
2023-08-11T18:26:16.987Z,88.60
2023-08-11T18:28:43.913Z,89.50
2023-08-11T18:31:10.713Z,90.60
2023-08-11T18:33:37.537Z,91.30
2023-08-11T18:36:04.528Z,92.30
2023-08-11T18:38:31.320Z,92.90
2023-08-11T18:40:58.013Z,93.90
2023-08-11T18:43:25.761Z,95.30
2023-08-11T18:45:52.663Z,96.30
2023-08-11T18:48:19.893Z,97.10
2023-08-11T18:50:47.028Z,97.90
2023-08-11T18:53:14.097Z,98.60
2023-08-11T18:55:40.872Z,99.20
2023-08-11T18:58:07.916Z,99.90
2023-08-11T19:00:34.760Z,99.90
2023-08-11T19:03:01.658Z,99.90
2023-08-11T19:05:28.858Z,99.90
2023-08-11T19:07:55.996Z,99.90
2023-08-11T19:10:23.397Z,99.90
2023-08-11T19:12:50.291Z,99.90
2023-08-11T19:15:17.072Z,99.90
2023-08-11T19:17:43.849Z,99.90
2023-08-11T19:20:12.046Z,99.90
2023-08-11T19:22:38.818Z,99.90
2023-08-11T19:25:08.547Z,99.90
2023-08-11T19:27:35.407Z,99.90
2023-08-11T19:30:02.308Z,99.90
2023-08-11T19:32:29.187Z,99.90
2023-08-11T19:34:57.006Z,99.90
2023-08-11T19:37:24.051Z,99.90
2023-08-11T19:39:50.844Z,99.90
2023-08-11T19:42:17.630Z,99.90
2023-08-11T19:44:44.570Z,99.90
2023-08-11T19:47:11.354Z,99.90
2023-08-11T19:49:38.190Z,99.90
2023-08-11T19:52:05.448Z,99.90
2023-08-11T19:54:32.227Z,99.90
2023-08-11T19:56:58.999Z,99.90
2023-08-11T19:59:25.782Z,99.90
2023-08-11T20:01:52.524Z,99.90
2023-08-11T20:04:20.024Z,99.90
2023-08-11T20:06:47.012Z,99.90
2023-08-11T20:09:15.479Z,99.90
2023-08-11T20:11:42.577Z,99.90
2023-08-11T20:14:09.273Z,99.90
2023-08-11T20:16:36.068Z,99.90
2023-08-11T20:19:02.880Z,99.90
2023-08-11T20:21:29.675Z,99.90
2023-08-11T20:23:56.430Z,99.90
2023-08-11T20:26:23.232Z,99.90
2023-08-11T20:28:51.191Z,99.90
2023-08-11T20:31:18.170Z,99.90
2023-08-11T20:33:44.942Z,99.90
2023-08-11T20:36:11.756Z,99.90
2023-08-11T20:38:39.297Z,99.90
2023-08-11T20:41:06.613Z,99.90
2023-08-11T20:43:33.534Z,99.90
2023-08-11T20:46:01.125Z,99.90
2023-08-11T20:48:28.100Z,99.90
2023-08-11T20:51:08.806Z,99.90
2023-08-11T20:53:36.647Z,99.90
2023-08-11T20:56:03.421Z,99.90
2023-08-11T20:58:30.231Z,99.90
2023-08-11T21:00:57.998Z,99.90
2023-08-11T21:03:24.776Z,99.90
2023-08-11T21:05:52.854Z,99.90
2023-08-11T21:08:19.680Z,99.90
2023-08-11T21:10:47.227Z,99.90
2023-08-11T21:13:14.157Z,99.90
2023-08-11T21:15:41.699Z,99.90
2023-08-11T21:18:09.241Z,99.90
2023-08-11T21:20:36.705Z,99.90
2023-08-11T21:23:04.601Z,99.90
2023-08-11T21:25:32.949Z,99.90
2023-08-11T21:27:59.672Z,99.90
2023-08-11T21:30:26.717Z,99.90
2023-08-11T21:32:53.560Z,99.90
2023-08-11T21:35:20.640Z,99.90
2023-08-11T21:37:47.452Z,99.90
2023-08-11T21:40:14.217Z,99.90
2023-08-11T21:42:40.992Z,99.90
2023-08-11T21:45:08.274Z,99.90
2023-08-11T21:47:35.932Z,99.90
2023-08-11T21:50:03.204Z,99.90
2023-08-11T21:52:32.826Z,99.90
2023-08-11T21:54:59.610Z,99.90
2023-08-11T21:57:26.386Z,99.90
2023-08-11T21:59:53.128Z,99.90
2023-08-11T22:02:19.969Z,99.90
2023-08-11T22:04:46.769Z,99.90
2023-08-11T22:07:14.225Z,99.90
2023-08-11T22:09:42.711Z,99.90
2023-08-11T22:12:12.905Z,99.90
2023-08-11T22:14:40.038Z,99.90
2023-08-11T22:17:06.942Z,99.90
2023-08-11T22:19:36.332Z,99.90
2023-08-11T22:22:06.708Z,99.90
2023-08-11T22:24:41.197Z,99.90
2023-08-11T22:27:10.502Z,99.90
2023-08-11T22:29:37.916Z,99.90
2023-08-11T22:32:05.104Z,99.90
2023-08-11T22:34:31.968Z,99.90
2023-08-11T22:36:58.678Z,99.90
2023-08-11T22:39:25.460Z,99.90
2023-08-11T22:41:52.190Z,99.90
2023-08-11T22:44:18.872Z,99.90
2023-08-11T22:46:45.585Z,99.90
2023-08-11T22:49:12.539Z,99.90
2023-08-11T22:51:39.328Z,99.90
2023-08-11T22:54:06.108Z,99.90
2023-08-11T22:56:32.883Z,99.90
2023-08-11T22:58:59.636Z,99.90
2023-08-11T23:01:26.420Z,99.90
2023-08-11T23:03:53.193Z,99.90
2023-08-11T23:06:20.553Z,99.90
2023-08-11T23:08:47.372Z,99.90
2023-08-11T23:11:14.124Z,99.90
2023-08-11T23:13:40.883Z,99.90
2023-08-11T23:16:07.712Z,99.90
2023-08-11T23:18:34.458Z,99.90
2023-08-11T23:21:01.186Z,99.90
2023-08-11T23:23:27.889Z,99.90
2023-08-11T23:25:55.881Z,99.90
2023-08-11T23:28:22.698Z,99.90
2023-08-11T23:30:49.738Z,99.90
2023-08-11T23:33:16.925Z,99.90
2023-08-11T23:35:44.001Z,99.90
2023-08-11T23:38:12.077Z,99.90
2023-08-11T23:40:39.082Z,99.90
2023-08-11T23:43:06.343Z,99.90
2023-08-11T23:45:33.525Z,99.90
2023-08-11T23:48:00.449Z,99.90
2023-08-11T23:50:27.937Z,99.90
2023-08-11T23:52:54.870Z,99.90
2023-08-11T23:55:21.796Z,99.90
2023-08-11T23:57:48.686Z,99.90
